Track Трегубов Никита

Time Latitude Longitude Accuracy (66% radius in meters) Altitude (meters) Speed (km/hour) Bearing (degrees) Battery (%) GPS flag
04:14:50 51.899012 107.660637 1.7999999523163 679.4 1.7608647346497 50.419998168945 87 1 delete
04:14:45 51.898945 107.660493 1.7999999523163 678.9 1.0047377347946 54.970001220703 87 1 delete
04:14:41 51.898917 107.660418 1.7999999523163 679.4 0.91105830669403 52.009998321533 87 1 delete
04:14:37 51.898895 107.660355 1.7999999523163 679.7 1.1601839065552 41.950000762939 87 1 delete
04:14:30 51.898897 107.660225 1.7999999523163 682 1.9492530822754 131.16999816895 87 1 delete
04:14:29 51.898910 107.660202 1.7999999523163 682.7 2.0696980953217 120.04000091553 87 1 delete
04:14:24 51.898940 107.660040 1.7999999523163 685.5 2.1736719608307 91.529998779297 87 1 delete
04:14:20 51.898937 107.659903 1.7999999523163 687.2 2.1608037948608 64.959999084473 87 1 delete
04:14:19 51.898928 107.659863 1.7999999523163 687.4 2.0954341888428 73.309997558594 87 1 delete
04:14:14 51.898888 107.659687 1.7999999523163 688.6 2.2308061122894 54.819999694824 87 1 delete
04:14:10 51.898862 107.659582 1.7000000476837 689.5 2.3100733757019 63.459999084473 87 1 delete
04:14:09 51.898855 107.659552 1.7000000476837 689.7 2.2380123138428 63.900001525879 87 1 delete
04:14:05 51.898827 107.659397 1.7000000476837 689.6 1.6182866096497 61.680000305176 87 1 delete
04:14:00 51.898805 107.659243 1.7000000476837 690.2 0.82973223924637 50.270000457764 87 1 delete
04:13:59 51.898798 107.659227 1.7000000476837 690.3 0.7602447271347 53 87 1 delete
04:13:49 51.898778 107.659115 1.7000000476837 691.9 0 38.779998779297 87 1 delete
04:13:43 51.898795 107.659082 1.7999999523163 691.9 1.3372483253479 65.699996948242 87 1 delete
04:13:39 51.898843 107.659037 1.8999999761581 692.4 1.6862299442291 71.599998474121 87 1 delete
04:13:36 51.898877 107.659007 1.8999999761581 693 1.3979855775833 148.96000671387 87 1 delete
04:13:33 51.898968 107.658968 1.8999999761581 694 1.2466572523117 163.35000610352 87 1 delete
04:13:30 51.899072 107.658975 2 695.3 1.1982733011246 141.69999694824 87 1 delete
04:13:28 51.899122 107.658960 2 695.8 1.6049039363861 139.16000366211 87 1 delete
04:13:25 51.899168 107.658930 2 697.3 1.8689564466476 151.05000305176 87 1 delete
04:13:21 51.899275 107.658915 2 698.8 1.7639530897141 100.34999847412 87 1 delete
04:13:18 51.899292 107.658823 2 698.1 1.289379119873 48.049999237061 87 1 delete
04:13:15 51.899328 107.658792 2.0999999046326 698.5 0.83230584859848 163.63999938965 87 1 delete
04:13:10 51.899427 107.658808 2 699.1 0.44677889347076 189.7799987793 87 1 delete
04:13:08 51.899455 107.658813 1.8999999761581 699.3 0.47354444861412 202.83000183105 87 1 delete
04:13:03 51.899515 107.658845 1.8999999761581 699.5 0.96613359451294 185.14999389648 87 1 delete
04:12:59 51.899618 107.658888 2 698.8 1.4226921796799 194.61999511719 87 1 delete
04:12:58 51.899647 107.658895 2 698.9 1.4890913963318 26.190000534058 87 1 delete
04:12:47 51.899725 107.658870 2.0999999046326 698.7 0.81068748235703 15.960000038147 87 1 delete
04:12:45 51.899728 107.658867 2.0999999046326 698.8 0.67274194955826 85.930000305176 87 1 delete
04:12:39 51.899815 107.658808 2 699 0.71494919061661 336.63000488281 87 1 delete
04:12:37 51.899820 107.658812 2 699.3 0.75046497583389 27.389999389648 87 1 delete
04:12:30 51.899905 107.658802 2 699.9 0.88583695888519 162.47999572754 87 1 delete
04:12:26 51.899975 107.658798 2 700 0.82870280742645 149.75 87 1 delete
04:12:25 51.900002 107.658790 1.8999999761581 700.1 0.76745080947876 126.73000335693 87 1 delete
04:12:16 51.900077 107.658845 1.8999999761581 700.2 1.2029057741165 209.7200012207 87 1 delete
04:12:15 51.900088 107.658850 1.8999999761581 700.2 1.282173037529 234.94000244141 87 1 delete
04:12:06 51.900118 107.658967 1.8999999761581 700.9 0.64443224668503 230.88000488281 87 1 delete
04:12:05 51.900128 107.658985 1.8999999761581 700.8 0.56773859262466 222.08999633789 87 1 delete
04:11:55 51.900180 107.659093 1.7999999523163 699.7 1.9163107872009 8.8800001144409 87 1 delete
04:11:49 51.900145 107.659138 1.8999999761581 700 1.5673291683197 343.85998535156 87 1 delete
04:11:45 51.900087 107.659180 2 700.7 1.4216628074646 336.10000610352 87 1 delete
04:11:36 51.900068 107.659243 1.7999999523163 703.1 1.9085899591446 2.9100000858307 87 1 delete
04:11:35 51.900065 107.659263 1.7999999523163 703.7 1.8936630487442 5.4200000762939 87 1 delete
04:11:25 51.900008 107.659375 1.8999999761581 700.1 1.3423955440521 353.5299987793 87 1 delete
04:11:24 51.900005 107.659388 1.8999999761581 699.8 1.2873202562332 353.98001098633 87 1 delete
04:11:16 51.900045 107.659513 1.8999999761581 699.9 0.8374530673027 251.38999938965 87 1 delete